createdAt,value
2018-12-12T00:02:16.257Z,97525.29
2018-12-12T00:04:45.745Z,97539.28
2018-12-12T00:07:15.049Z,97532.86
2018-12-12T00:09:44.270Z,97535.68
2018-12-12T00:12:13.497Z,97533.98
2018-12-12T00:14:42.725Z,97532.16
2018-12-12T00:17:12.071Z,97531.98
2018-12-12T00:19:41.289Z,97527.11
2018-12-12T00:22:10.539Z,97530.86
2018-12-12T00:24:39.783Z,97526.78
2018-12-12T00:27:09.023Z,97530.31
2018-12-12T00:29:38.287Z,97532.14
2018-12-12T00:32:07.518Z,97532.08
2018-12-12T00:34:36.725Z,97531.20
2018-12-12T00:37:06.013Z,97527.84
2018-12-12T00:39:35.345Z,97531.63
2018-12-12T00:42:04.660Z,97540.77
2018-12-12T00:44:33.939Z,97532.06
2018-12-12T00:47:03.194Z,97526.63
2018-12-12T00:49:32.401Z,97527.29
2018-12-12T00:52:01.667Z,97527.23
2018-12-12T00:54:31.130Z,97529.98
2018-12-12T00:57:00.341Z,97520.92
2018-12-12T00:59:29.597Z,97522.81
2018-12-12T01:01:58.898Z,97526.84
2018-12-12T01:04:28.149Z,97533.54
2018-12-12T01:06:57.539Z,97533.45
2018-12-12T01:09:26.788Z,97543.57
2018-12-12T01:12:03.749Z,97534.38
2018-12-12T01:14:33.028Z,97534.81
2018-12-12T01:17:02.272Z,97537.95
2018-12-12T01:19:31.524Z,97535.67
2018-12-12T01:22:00.779Z,97546.43
2018-12-12T01:24:30.159Z,97548.48
2018-12-12T01:26:59.412Z,97540.92
2018-12-12T01:29:28.756Z,97546.22
2018-12-12T01:31:58.177Z,97543.67
2018-12-12T01:34:27.417Z,97539.67
2018-12-12T01:36:56.864Z,97539.94
2018-12-12T01:39:26.116Z,97535.58
2018-12-12T01:41:55.315Z,97541.34
2018-12-12T01:44:24.525Z,97541.28
2018-12-12T01:46:53.729Z,97537.39
2018-12-12T01:49:23.149Z,97531.70
2018-12-12T01:51:52.347Z,97530.97
2018-12-12T01:54:21.671Z,97533.24
2018-12-12T01:56:50.896Z,97529.49
2018-12-12T01:59:20.181Z,97532.83
2018-12-12T02:01:49.406Z,97530.16
2018-12-12T02:04:18.797Z,97535.78
2018-12-12T02:06:48.023Z,97547.84
2018-12-12T02:09:17.270Z,97542.45
2018-12-12T02:11:46.686Z,97545.78
2018-12-12T02:17:20.058Z,97542.82
2018-12-12T02:19:49.588Z,97542.63
2018-12-12T02:22:19.024Z,97546.99
2018-12-12T02:24:48.351Z,97545.09
2018-12-12T02:27:17.670Z,97541.40
2018-12-12T02:29:47.110Z,97544.09
2018-12-12T02:32:17.388Z,97543.94
2018-12-12T02:34:46.975Z,97541.48
2018-12-12T02:40:10.589Z,97538.09
2018-12-12T02:42:39.806Z,97536.73
2018-12-12T02:45:09.099Z,97537.16
2018-12-12T02:47:38.328Z,97530.47
2018-12-12T02:50:07.707Z,97536.38
2018-12-12T02:52:36.899Z,97528.25
2018-12-12T02:55:07.230Z,97525.16
2018-12-12T02:57:36.489Z,97529.53
2018-12-12T03:00:08.337Z,97524.72
2018-12-12T03:02:38.293Z,97533.23
2018-12-12T03:05:07.717Z,97528.98
2018-12-12T03:07:37.439Z,97530.53
2018-12-12T03:10:06.950Z,97531.63
2018-12-12T03:12:36.177Z,97537.46
2018-12-12T03:15:06.550Z,97533.34
2018-12-12T03:17:35.898Z,97531.08
2018-12-12T03:20:05.901Z,97541.07
2018-12-12T03:22:35.231Z,97531.73
2018-12-12T03:25:04.751Z,97536.55
2018-12-12T03:27:34.017Z,97536.73
2018-12-12T03:30:03.555Z,97523.38
2018-12-12T03:32:32.889Z,97531.16
2018-12-12T03:35:02.223Z,97536.53
2018-12-12T03:37:31.459Z,97526.63
2018-12-12T03:40:01.059Z,97535.34
2018-12-12T03:42:30.735Z,97530.31
2018-12-12T03:45:00.526Z,97528.62
2018-12-12T03:47:29.913Z,97534.28
2018-12-12T03:49:59.182Z,97539.60
2018-12-12T03:52:28.417Z,97541.20
2018-12-12T03:54:57.811Z,97541.03
2018-12-12T03:57:27.052Z,97539.03
2018-12-12T03:59:56.404Z,97540.52
2018-12-12T04:02:25.737Z,97539.70
2018-12-12T04:04:55.045Z,97540.42
2018-12-12T04:07:24.394Z,97538.48
2018-12-12T04:09:53.643Z,97549.11
2018-12-12T04:15:26.851Z,97537.03
2018-12-12T04:17:56.205Z,97544.45
2018-12-12T04:20:25.553Z,97542.47
2018-12-12T04:22:58.632Z,97543.35
2018-12-12T04:25:28.273Z,97544.56
2018-12-12T04:27:57.605Z,97529.52
2018-12-12T04:30:27.026Z,97539.94
2018-12-12T04:32:56.269Z,97534.67
2018-12-12T04:35:25.772Z,97541.75
2018-12-12T04:37:55.404Z,97545.34
2018-12-12T04:40:25.392Z,97533.01
2018-12-12T04:42:54.611Z,97537.88
2018-12-12T04:45:24.038Z,97538.84
2018-12-12T04:47:53.272Z,97538.22
2018-12-12T04:50:22.493Z,97538.81
2018-12-12T04:52:51.949Z,97542.32
2018-12-12T04:55:21.518Z,97546.90
2018-12-12T04:57:50.852Z,97552.64
2018-12-12T05:00:20.101Z,97545.63
2018-12-12T05:02:50.248Z,97545.63
2018-12-12T05:05:19.486Z,97542.14
2018-12-12T05:07:48.802Z,97543.57
2018-12-12T05:10:18.446Z,97551.36
2018-12-12T05:12:47.712Z,97555.91
2018-12-12T05:15:17.306Z,97556.39
2018-12-12T05:17:46.578Z,97558.27
2018-12-12T05:20:15.931Z,97558.42
2018-12-12T05:22:45.123Z,97555.37
2018-12-12T05:25:14.394Z,97555.03
2018-12-12T05:27:43.582Z,97558.85
2018-12-12T05:30:12.770Z,97552.37
2018-12-12T05:32:41.973Z,97556.06
2018-12-12T05:35:11.161Z,97557.00
2018-12-12T05:37:40.366Z,97557.82
2018-12-12T05:40:10.098Z,97554.61
2018-12-12T05:42:39.505Z,97552.21
2018-12-12T05:45:08.958Z,97554.42
2018-12-12T05:47:38.135Z,97562.17
2018-12-12T05:50:07.500Z,97556.97
2018-12-12T05:52:36.682Z,97556.33
2018-12-12T05:55:06.843Z,97563.52
2018-12-12T05:57:36.042Z,97559.84
2018-12-12T06:00:06.831Z,97562.52
2018-12-12T06:02:36.002Z,97561.78
2018-12-12T06:05:05.436Z,97560.56
2018-12-12T06:07:34.901Z,97561.54
2018-12-12T06:10:04.833Z,97563.75
2018-12-12T06:12:35.189Z,97568.41
2018-12-12T06:15:05.000Z,97562.33
2018-12-12T06:17:34.223Z,97555.23
2018-12-12T06:20:04.212Z,97567.95
2018-12-12T06:22:37.587Z,97565.81
2018-12-12T06:25:05.120Z,97561.72
2018-12-12T06:27:34.446Z,97559.63
2018-12-12T06:30:03.750Z,97563.33
2018-12-12T06:32:32.985Z,97573.17
2018-12-12T06:35:02.198Z,97564.39
2018-12-12T06:37:31.425Z,97569.29
2018-12-12T06:40:00.645Z,97569.29
2018-12-12T06:42:29.932Z,97573.45
2018-12-12T06:44:59.285Z,97573.59
2018-12-12T06:47:28.641Z,97575.66
2018-12-12T06:49:57.985Z,97577.27
2018-12-12T06:52:27.212Z,97573.59
2018-12-12T06:54:56.526Z,97579.14
2018-12-12T06:57:25.878Z,97583.89
2018-12-12T06:59:55.113Z,97585.16
2018-12-12T07:02:24.325Z,97578.95
2018-12-12T07:04:54.439Z,97579.34
2018-12-12T07:07:23.962Z,97586.92
2018-12-12T07:09:53.182Z,97592.50
2018-12-12T07:12:22.423Z,97592.95
2018-12-12T07:14:51.641Z,97588.41
2018-12-12T07:17:20.861Z,97598.64
2018-12-12T07:19:50.081Z,97598.64
2018-12-12T07:22:19.313Z,97597.80
2018-12-12T07:24:48.530Z,97606.17
2018-12-12T07:27:17.858Z,97602.02
2018-12-12T07:29:47.589Z,97594.83
2018-12-12T07:32:16.864Z,97597.86
2018-12-12T07:34:46.089Z,97594.77
2018-12-12T07:37:15.379Z,97600.41
2018-12-12T07:39:44.585Z,97601.01
2018-12-12T07:42:14.342Z,97603.01
2018-12-12T07:44:43.548Z,97604.92
2018-12-12T07:47:12.752Z,97604.04
2018-12-12T07:49:42.066Z,97597.34
2018-12-12T07:52:12.295Z,97603.91
2018-12-12T07:54:41.668Z,97598.00
2018-12-12T07:57:10.890Z,97613.77
2018-12-12T07:59:40.118Z,97610.48
2018-12-12T08:02:09.361Z,97609.27
2018-12-12T08:04:38.585Z,97610.33
2018-12-12T08:07:07.835Z,97608.33
2018-12-12T08:09:37.057Z,97613.97
2018-12-12T08:12:06.377Z,97605.84
2018-12-12T08:14:35.573Z,97614.36
2018-12-12T08:17:05.023Z,97610.75
2018-12-12T08:19:34.201Z,97615.84
2018-12-12T08:22:03.388Z,97616.78
2018-12-12T08:24:32.593Z,97618.73
2018-12-12T08:27:01.765Z,97617.08
2018-12-12T08:29:31.028Z,97619.62
2018-12-12T08:32:00.423Z,97609.83
2018-12-12T08:34:29.601Z,97613.70
2018-12-12T08:36:58.799Z,97614.98
2018-12-12T08:39:27.973Z,97613.37
2018-12-12T08:41:57.157Z,97615.46
2018-12-12T08:44:26.370Z,97613.03
2018-12-12T08:46:55.759Z,97616.06
2018-12-12T08:49:24.981Z,97617.88
2018-12-12T08:51:54.161Z,97615.38
2018-12-12T08:54:23.341Z,97614.26
2018-12-12T08:56:52.911Z,97610.09
2018-12-12T08:59:22.083Z,97620.00
2018-12-12T09:01:51.349Z,97625.78
2018-12-12T09:04:20.533Z,97615.45
2018-12-12T09:06:49.888Z,97616.67
2018-12-12T09:09:19.142Z,97617.75
2018-12-12T09:11:48.392Z,97621.09
2018-12-12T09:14:17.565Z,97621.23
2018-12-12T09:16:46.778Z,97618.45
2018-12-12T09:19:15.950Z,97615.70
2018-12-12T09:21:45.234Z,97625.22
2018-12-12T09:24:14.447Z,97625.50
2018-12-12T09:26:43.639Z,97628.05
2018-12-12T09:29:12.823Z,97625.30
2018-12-12T09:31:42.009Z,97626.44
2018-12-12T09:34:11.215Z,97627.71
2018-12-12T09:36:40.123Z,97616.92
2018-12-12T09:39:09.318Z,97625.11
2018-12-12T09:41:38.498Z,97625.65
2018-12-12T09:44:08.027Z,97632.08
2018-12-12T09:46:37.187Z,97628.00
2018-12-12T09:49:05.947Z,97626.92
2018-12-12T09:51:35.137Z,97612.47
2018-12-12T09:54:04.406Z,97619.12
2018-12-12T09:56:33.606Z,97615.70
2018-12-12T09:59:02.788Z,97618.53
2018-12-12T10:01:32.047Z,97628.64
2018-12-12T10:04:01.268Z,97624.91
2018-12-12T10:06:30.568Z,97625.20
2018-12-12T10:08:59.770Z,97625.93
2018-12-12T10:11:29.049Z,97627.94
2018-12-12T10:13:58.353Z,97631.27
2018-12-12T10:16:27.540Z,97616.20
2018-12-12T10:18:56.815Z,97623.70
2018-12-12T10:21:26.083Z,97622.05
2018-12-12T10:23:55.287Z,97624.30
2018-12-12T10:26:24.467Z,97617.93
2018-12-12T10:28:54.337Z,97620.76
2018-12-12T10:31:23.603Z,97617.19
2018-12-12T10:33:52.786Z,97616.98
2018-12-12T10:36:22.063Z,97612.70
2018-12-12T10:38:51.246Z,97602.31
2018-12-12T10:41:20.426Z,97608.33
2018-12-12T10:43:49.672Z,97606.38
2018-12-12T10:46:18.858Z,97605.39
2018-12-12T10:48:48.062Z,97608.09
2018-12-12T10:51:17.251Z,97604.98
2018-12-12T10:53:46.437Z,97597.48
2018-12-12T10:56:15.889Z,97593.33
2018-12-12T10:58:45.099Z,97600.24
2018-12-12T11:01:19.658Z,97601.58
2018-12-12T11:03:48.946Z,97604.12
2018-12-12T11:06:18.123Z,97596.34
2018-12-12T11:08:47.411Z,97596.62
2018-12-12T11:11:16.710Z,97589.57
2018-12-12T11:13:45.030Z,97587.75
2018-12-12T11:16:14.329Z,97589.02
2018-12-12T11:18:43.566Z,97586.09
2018-12-12T11:21:12.823Z,97585.19
2018-12-12T11:23:42.142Z,97581.35
2018-12-12T11:26:11.414Z,97574.95
2018-12-12T11:28:40.682Z,97580.00
2018-12-12T11:31:10.313Z,97578.59
2018-12-12T11:33:39.750Z,97574.97
2018-12-12T11:36:08.986Z,97572.40
2018-12-12T11:38:38.240Z,97571.05
2018-12-12T11:41:07.470Z,97577.42
2018-12-12T11:43:36.738Z,97573.81
2018-12-12T11:46:06.222Z,97572.02
2018-12-12T11:48:35.445Z,97565.70
2018-12-12T11:51:04.794Z,97570.58
2018-12-12T11:53:34.007Z,97566.36
2018-12-12T11:56:03.320Z,97568.86
2018-12-12T11:58:32.545Z,97560.11
2018-12-12T12:01:01.849Z,97560.38
2018-12-12T12:03:31.078Z,97563.63
2018-12-12T12:06:00.331Z,97558.55
2018-12-12T12:08:29.652Z,97560.41
2018-12-12T12:10:58.892Z,97560.14
2018-12-12T12:13:28.141Z,97563.23
2018-12-12T12:15:57.346Z,97560.70
2018-12-12T12:18:26.538Z,97555.30
2018-12-12T12:20:55.735Z,97557.59
2018-12-12T12:23:25.103Z,97558.77
2018-12-12T12:25:54.462Z,97553.42
2018-12-12T12:28:23.680Z,97548.99
2018-12-12T12:31:06.976Z,97548.38
2018-12-12T12:33:36.274Z,97547.56
2018-12-12T12:36:05.767Z,97549.47
2018-12-12T12:38:35.129Z,97548.14
2018-12-12T12:41:04.483Z,97544.66
2018-12-12T12:43:34.417Z,97544.39
2018-12-12T12:46:03.839Z,97545.96
2018-12-12T12:48:33.325Z,97543.70
2018-12-12T12:54:05.597Z,97541.60
2018-12-12T12:56:34.988Z,97542.43
2018-12-12T12:59:04.345Z,97537.41
2018-12-12T13:01:33.675Z,97534.91
2018-12-12T13:04:02.973Z,97536.12
2018-12-12T13:06:32.299Z,97539.50
2018-12-12T13:09:01.581Z,97541.95
2018-12-12T13:11:31.067Z,97533.80
2018-12-12T13:14:00.463Z,97532.60
2018-12-12T13:16:29.948Z,97533.98
2018-12-12T13:18:59.355Z,97531.54
2018-12-12T13:21:28.752Z,97530.34
2018-12-12T13:23:58.172Z,97526.41
2018-12-12T13:26:27.546Z,97521.70
2018-12-12T13:28:56.914Z,97532.30
2018-12-12T13:31:26.254Z,97523.19
2018-12-12T13:33:55.757Z,97524.33
2018-12-12T13:36:25.305Z,97523.87
2018-12-12T13:38:54.847Z,97527.17
2018-12-12T13:41:24.190Z,97521.47
2018-12-12T13:43:53.586Z,97520.19
2018-12-12T13:46:22.913Z,97516.23
2018-12-12T13:48:52.325Z,97513.28
2018-12-12T13:51:21.677Z,97519.71
2018-12-12T13:53:51.142Z,97520.24
2018-12-12T13:56:20.545Z,97512.94
2018-12-12T13:58:49.964Z,97519.04
2018-12-12T14:01:19.386Z,97519.86
2018-12-12T14:03:48.775Z,97527.17
2018-12-12T14:06:18.166Z,97527.17
2018-12-12T14:08:47.540Z,97525.03
2018-12-12T14:11:16.972Z,97528.02
2018-12-12T14:13:46.261Z,97523.27
2018-12-12T14:16:15.537Z,97529.05
2018-12-12T14:18:44.933Z,97520.67
2018-12-12T14:21:14.313Z,97526.59
2018-12-12T14:23:43.742Z,97525.22
2018-12-12T14:26:13.013Z,97526.25
2018-12-12T14:28:42.242Z,97532.67
2018-12-12T14:31:11.549Z,97524.97
2018-12-12T14:33:40.882Z,97534.67
2018-12-12T14:36:10.603Z,97527.18
2018-12-12T14:38:39.886Z,97525.82
2018-12-12T14:41:09.157Z,97517.59
2018-12-12T14:43:38.447Z,97526.25
2018-12-12T14:46:07.848Z,97530.86
2018-12-12T14:48:37.321Z,97528.16
2018-12-12T14:51:06.713Z,97527.17
2018-12-12T14:53:35.957Z,97531.87
2018-12-12T14:56:05.682Z,97532.13
2018-12-12T14:58:34.965Z,97530.80
2018-12-12T15:01:04.394Z,97536.77
2018-12-12T15:03:33.702Z,97527.66
2018-12-12T15:06:03.128Z,97531.13
2018-12-12T15:08:32.470Z,97533.73
2018-12-12T15:11:01.840Z,97525.75
2018-12-12T15:13:31.111Z,97525.45
2018-12-12T15:16:00.428Z,97524.96
2018-12-12T15:21:31.703Z,97523.97
2018-12-12T15:24:01.026Z,97521.63
2018-12-12T15:26:30.274Z,97528.18
2018-12-12T15:28:59.683Z,97522.70
2018-12-12T15:31:29.493Z,97520.80
2018-12-12T15:33:59.420Z,97518.53
2018-12-12T15:36:28.719Z,97530.72
2018-12-12T15:38:57.989Z,97525.90
2018-12-12T15:41:27.285Z,97515.91
2018-12-12T15:43:56.637Z,97519.77
2018-12-12T15:46:26.030Z,97515.27
2018-12-12T15:48:55.349Z,97516.99
2018-12-12T15:51:24.651Z,97527.80
2018-12-12T15:53:53.965Z,97516.89
2018-12-12T15:56:23.313Z,97520.19
2018-12-12T15:58:52.612Z,97518.28
2018-12-12T16:01:21.950Z,97517.67
2018-12-12T16:03:51.584Z,97514.45
2018-12-12T16:06:20.989Z,97511.53
2018-12-12T16:08:50.399Z,97518.72
2018-12-12T16:11:20.610Z,97513.74
2018-12-12T16:13:49.953Z,97519.55
2018-12-12T16:16:19.337Z,97522.97
2018-12-12T16:18:49.343Z,97521.49
2018-12-12T16:21:18.694Z,97519.38
2018-12-12T16:23:48.171Z,97521.98
2018-12-12T16:26:17.528Z,97520.27
2018-12-12T16:28:46.911Z,97518.09
2018-12-12T16:34:15.319Z,97518.97
2018-12-12T16:36:46.168Z,97511.67
2018-12-12T16:39:18.177Z,97513.50
2018-12-12T16:41:47.744Z,97509.66
2018-12-12T16:44:17.013Z,97516.16
2018-12-12T16:46:46.488Z,97517.39
2018-12-12T16:49:15.786Z,97512.27
2018-12-12T16:51:45.080Z,97509.23
2018-12-12T16:54:14.482Z,97513.19
2018-12-12T16:56:43.820Z,97509.10
2018-12-12T16:59:13.289Z,97506.78
2018-12-12T17:01:43.438Z,97506.60
2018-12-12T17:04:12.848Z,97499.85
2018-12-12T17:06:42.785Z,97503.00
2018-12-12T17:09:12.135Z,97497.82
2018-12-12T17:11:41.541Z,97505.05
2018-12-12T17:14:10.831Z,97502.73
2018-12-12T17:16:40.186Z,97499.86
2018-12-12T17:19:09.515Z,97496.47
2018-12-12T17:21:38.861Z,97499.67
2018-12-12T17:24:08.188Z,97506.03
2018-12-12T17:26:37.656Z,97503.46
2018-12-12T17:29:06.989Z,97497.22
2018-12-12T17:31:36.381Z,97502.13
2018-12-12T17:34:05.828Z,97497.79
2018-12-12T17:36:35.117Z,97495.92
2018-12-12T17:39:07.211Z,97501.25
2018-12-12T17:41:36.576Z,97495.28
2018-12-12T17:44:06.033Z,97496.25
2018-12-12T17:46:35.383Z,97507.48
2018-12-12T17:49:04.891Z,97507.76
2018-12-12T17:51:34.271Z,97511.97
2018-12-12T17:54:03.599Z,97497.83
2018-12-12T17:56:32.973Z,97504.73
2018-12-12T17:59:02.340Z,97503.06
2018-12-12T18:01:34.757Z,97503.55
2018-12-12T18:04:04.189Z,97496.77
2018-12-12T18:06:33.591Z,97496.67
2018-12-12T18:09:03.765Z,97501.48
2018-12-12T18:11:33.079Z,97497.45
2018-12-12T18:14:02.469Z,97499.81
2018-12-12T18:16:31.912Z,97497.20
2018-12-12T18:19:01.299Z,97496.41
2018-12-12T18:21:30.617Z,97497.18
2018-12-12T18:24:00.356Z,97495.17
2018-12-12T18:26:29.775Z,97491.30
2018-12-12T18:28:59.111Z,97493.04
2018-12-12T18:31:28.433Z,97490.49
2018-12-12T18:33:57.945Z,97485.41
2018-12-12T18:36:27.231Z,97488.89
2018-12-12T18:38:56.544Z,97482.86
2018-12-12T18:41:25.889Z,97488.53
2018-12-12T18:43:55.440Z,97485.05
2018-12-12T18:46:24.724Z,97484.98
2018-12-12T18:48:54.010Z,97480.20
2018-12-12T18:51:23.325Z,97487.63
2018-12-12T18:53:52.705Z,97485.08
2018-12-12T18:56:22.041Z,97482.05
2018-12-12T18:58:51.403Z,97480.00
2018-12-12T19:01:20.867Z,97483.84
2018-12-12T19:03:50.181Z,97481.09
2018-12-12T19:06:20.260Z,97485.35
2018-12-12T19:08:50.384Z,97475.48
2018-12-12T19:11:19.849Z,97468.37
2018-12-12T19:13:49.321Z,97475.06
2018-12-12T19:16:18.735Z,97485.92
2018-12-12T19:18:48.177Z,97475.72
2018-12-12T19:21:17.550Z,97479.65
2018-12-12T19:23:47.083Z,97485.91
2018-12-12T19:26:16.468Z,97484.02
2018-12-12T19:28:45.917Z,97480.94
2018-12-12T19:31:15.259Z,97475.86
2018-12-12T19:33:44.593Z,97480.31
2018-12-12T19:36:14.928Z,97480.75
2018-12-12T19:38:44.245Z,97477.87
2018-12-12T19:41:13.639Z,97486.92
2018-12-12T19:43:43.245Z,97489.47
2018-12-12T19:46:13.141Z,97493.28
2018-12-12T19:48:42.723Z,97492.41
2018-12-12T19:51:12.159Z,97493.58
2018-12-12T19:53:41.519Z,97496.33
2018-12-12T19:59:11.762Z,97480.75
2018-12-12T20:01:41.374Z,97487.44
2018-12-12T20:04:10.683Z,97486.34
2018-12-12T20:06:40.128Z,97482.70
2018-12-12T20:09:09.870Z,97487.00
2018-12-12T20:11:39.445Z,97488.06
2018-12-12T20:14:08.815Z,97489.84
2018-12-12T20:16:38.148Z,97484.96
2018-12-12T20:19:10.095Z,97490.28
2018-12-12T20:21:39.640Z,97487.50
2018-12-12T20:24:09.105Z,97489.16
2018-12-12T20:26:38.490Z,97484.41
2018-12-12T20:29:07.864Z,97489.89
2018-12-12T20:31:37.212Z,97481.48
2018-12-12T20:34:06.732Z,97477.66
2018-12-12T20:36:36.288Z,97481.60
2018-12-12T20:39:08.213Z,97484.08
2018-12-12T20:41:37.615Z,97476.52
2018-12-12T20:44:07.207Z,97480.60
2018-12-12T20:46:36.499Z,97485.29
2018-12-12T20:49:05.907Z,97477.02
2018-12-12T20:51:35.238Z,97480.66
2018-12-12T20:54:05.259Z,97476.39
2018-12-12T20:56:34.638Z,97472.27
2018-12-12T20:59:04.212Z,97476.58
2018-12-12T21:01:33.625Z,97472.33
2018-12-12T21:04:03.035Z,97479.33
2018-12-12T21:09:30.234Z,97470.50
2018-12-12T21:11:59.940Z,97469.79
2018-12-12T21:14:29.371Z,97468.61
2018-12-12T21:16:58.875Z,97465.91
2018-12-12T21:19:28.276Z,97457.57
2018-12-12T21:21:57.693Z,97455.98
2018-12-12T21:24:27.219Z,97450.78
2018-12-12T21:26:56.625Z,97456.19
2018-12-12T21:29:25.964Z,97454.97
2018-12-12T21:31:55.464Z,97452.49
2018-12-12T21:34:24.961Z,97455.69
2018-12-12T21:36:54.325Z,97452.43
2018-12-12T21:39:23.668Z,97446.31
2018-12-12T21:41:53.014Z,97441.30
2018-12-12T21:44:22.396Z,97441.08
2018-12-12T21:46:51.858Z,97449.84
2018-12-12T21:49:21.281Z,97450.63
2018-12-12T21:51:50.679Z,97442.55
2018-12-12T21:54:20.033Z,97442.67
2018-12-12T21:56:49.406Z,97431.24
2018-12-12T21:59:18.771Z,97433.17
2018-12-12T22:01:48.110Z,97433.56
2018-12-12T22:04:17.550Z,97432.23
2018-12-12T22:09:49.733Z,97439.41
2018-12-12T22:12:19.170Z,97430.84
2018-12-12T22:14:48.486Z,97423.61
2018-12-12T22:17:17.841Z,97432.28
2018-12-12T22:19:47.236Z,97425.93
2018-12-12T22:22:16.614Z,97420.40
2018-12-12T22:24:46.020Z,97430.62
2018-12-12T22:27:15.536Z,97424.43
2018-12-12T22:29:44.837Z,97423.39
2018-12-12T22:32:14.425Z,97423.39
2018-12-12T22:34:43.740Z,97420.69
2018-12-12T22:37:13.225Z,97416.98
2018-12-12T22:39:57.677Z,97412.46
2018-12-12T22:42:27.184Z,97421.45
2018-12-12T22:44:56.545Z,97424.05
2018-12-12T22:47:25.939Z,97417.41
2018-12-12T22:49:55.309Z,97415.20
2018-12-12T22:52:24.730Z,97413.38
2018-12-12T22:57:56.037Z,97413.94
2018-12-12T23:00:30.635Z,97418.84
2018-12-12T23:03:00.184Z,97414.58
2018-12-12T23:05:29.676Z,97407.42
2018-12-12T23:07:59.272Z,97401.17
2018-12-12T23:10:28.740Z,97407.42
2018-12-12T23:12:58.309Z,97405.60
2018-12-12T23:15:27.712Z,97404.11
2018-12-12T23:17:57.145Z,97396.49
2018-12-12T23:20:26.466Z,97390.14
2018-12-12T23:22:55.882Z,97394.37
2018-12-12T23:25:25.230Z,97391.61
2018-12-12T23:27:54.515Z,97395.26
2018-12-12T23:30:23.987Z,97392.72
2018-12-12T23:32:53.293Z,97394.31
2018-12-12T23:35:22.882Z,97394.95
2018-12-12T23:37:52.282Z,97389.66
2018-12-12T23:40:22.058Z,97382.30
2018-12-12T23:42:51.425Z,97385.64
2018-12-12T23:45:20.774Z,97381.05
2018-12-12T23:47:50.190Z,97381.05
2018-12-12T23:50:19.791Z,97377.89
2018-12-12T23:52:49.138Z,97376.06
2018-12-12T23:55:18.496Z,97384.84
2018-12-12T23:57:47.783Z,97381.91
